createdAt,value
2022-08-29T00:00:37.255Z,40.90
2022-08-29T00:02:40.676Z,41.02
2022-08-29T00:04:43.682Z,40.96
2022-08-29T00:06:47.342Z,41.02
2022-08-29T00:08:50.347Z,41.25
2022-08-29T00:10:53.255Z,41.05
2022-08-29T00:12:57.809Z,41.30
2022-08-29T00:15:00.724Z,41.42
2022-08-29T00:17:03.516Z,41.40
2022-08-29T00:19:06.224Z,41.71
2022-08-29T00:21:08.822Z,42.37
2022-08-29T00:23:12.094Z,42.68
2022-08-29T00:25:15.390Z,42.77
2022-08-29T00:27:17.996Z,43.35
2022-08-29T00:29:20.602Z,43.16
2022-08-29T00:31:23.306Z,43.14
2022-08-29T00:33:26.039Z,43.14
2022-08-29T00:35:32.774Z,43.73
2022-08-29T00:37:35.774Z,43.75
2022-08-29T00:39:38.585Z,43.89
2022-08-29T00:41:42.650Z,44.20
2022-08-29T00:43:46.125Z,44.24
2022-08-29T00:46:16.095Z,43.96
2022-08-29T00:48:21.102Z,44.26
2022-08-29T00:50:36.797Z,44.48
2022-08-29T00:52:44.804Z,44.38
2022-08-29T00:54:51.191Z,43.57
2022-08-29T00:56:55.275Z,43.57
2022-08-29T00:59:04.050Z,43.48
2022-08-29T01:01:07.327Z,42.85
2022-08-29T01:03:10.201Z,42.62
2022-08-29T01:05:15.535Z,42.29
2022-08-29T01:07:20.614Z,41.89
2022-08-29T01:09:24.786Z,41.34
2022-08-29T01:11:48.827Z,41.25
2022-08-29T01:13:54.030Z,40.59
2022-08-29T01:15:57.590Z,40.50
2022-08-29T01:18:01.433Z,39.80
2022-08-29T01:20:11.336Z,39.84
2022-08-29T01:22:58.722Z,39.73
2022-08-29T01:25:05.693Z,39.86
2022-08-29T01:27:11.567Z,40.00
2022-08-29T01:29:15.095Z,39.82
2022-08-29T01:31:38.549Z,40.05
2022-08-29T01:33:54.706Z,39.82
2022-08-29T01:35:57.307Z,40.15
2022-08-29T01:37:59.867Z,40.27
2022-08-29T01:40:02.660Z,40.99
2022-08-29T01:42:10.853Z,41.15
2022-08-29T01:44:18.789Z,41.09
2022-08-29T01:46:25.901Z,41.66
2022-08-29T01:48:28.515Z,42.18
2022-08-29T01:50:33.115Z,42.29
2022-08-29T01:52:35.827Z,42.56
2022-08-29T01:54:41.530Z,43.07
2022-08-29T01:56:48.478Z,43.26
2022-08-29T01:58:53.196Z,43.45
2022-08-29T02:00:55.932Z,43.70
2022-08-29T02:03:01.254Z,43.64
2022-08-29T02:05:04.264Z,43.76
2022-08-29T02:07:11.950Z,44.26
2022-08-29T02:09:15.425Z,44.18
2022-08-29T02:11:18.630Z,44.32
2022-08-29T02:13:21.651Z,44.92
2022-08-29T02:15:24.396Z,44.89
2022-08-29T02:17:27.549Z,45.17
2022-08-29T02:19:30.180Z,45.73
2022-08-29T02:21:32.822Z,44.98
2022-08-29T02:23:37.059Z,45.25
2022-08-29T02:25:42.659Z,44.42
2022-08-29T02:27:45.484Z,44.35
2022-08-29T02:29:48.124Z,44.87
2022-08-29T02:31:50.858Z,43.57
2022-08-29T02:33:54.384Z,43.07
2022-08-29T02:35:57.659Z,42.38
2022-08-29T02:38:01.231Z,43.05
2022-08-29T02:40:05.409Z,42.76
2022-08-29T02:42:08.524Z,42.18
2022-08-29T02:44:11.148Z,42.96
2022-08-29T02:46:16.698Z,42.49
2022-08-29T02:48:19.498Z,41.99
2022-08-29T02:50:22.507Z,42.01
2022-08-29T02:52:25.116Z,41.48
2022-08-29T02:54:27.772Z,41.58
2022-08-29T02:56:30.709Z,41.45
2022-08-29T02:58:34.370Z,41.45
2022-08-29T03:00:37.581Z,41.50
2022-08-29T03:02:40.353Z,41.30
2022-08-29T03:04:42.926Z,41.36
2022-08-29T03:06:45.577Z,41.29
2022-08-29T03:08:48.434Z,41.41
2022-08-29T03:10:51.724Z,41.08
2022-08-29T03:12:54.500Z,41.62
2022-08-29T03:14:57.708Z,41.61
2022-08-29T03:17:00.348Z,41.58
2022-08-29T03:19:03.255Z,41.58
2022-08-29T03:21:05.947Z,41.66
2022-08-29T03:23:10.049Z,41.61
2022-08-29T03:25:12.921Z,41.76
2022-08-29T03:27:15.622Z,41.41
2022-08-29T03:29:18.336Z,41.71
2022-08-29T03:31:21.892Z,41.52
2022-08-29T03:33:24.543Z,41.48
2022-08-29T03:35:27.166Z,41.78
2022-08-29T03:37:29.809Z,41.74
2022-08-29T03:39:35.237Z,41.52
2022-08-29T03:41:37.898Z,41.65
2022-08-29T03:43:40.585Z,41.95
2022-08-29T03:45:43.175Z,42.25
2022-08-29T03:47:46.392Z,42.65
2022-08-29T03:49:49.286Z,42.44
2022-08-29T03:51:52.070Z,41.82
2022-08-29T03:53:54.719Z,41.92
2022-08-29T03:55:57.375Z,41.74
2022-08-29T03:58:00.100Z,41.71
2022-08-29T04:00:16.268Z,41.37
2022-08-29T04:02:19.116Z,41.52
2022-08-29T04:04:54.342Z,41.85
2022-08-29T04:06:57.021Z,42.52
2022-08-29T04:09:00.075Z,42.40
2022-08-29T04:11:09.726Z,43.28
2022-08-29T04:13:12.729Z,44.60
2022-08-29T04:15:15.469Z,43.98
2022-08-29T04:17:19.262Z,42.98
2022-08-29T04:19:22.844Z,42.88
2022-08-29T04:21:26.222Z,42.01
2022-08-29T04:23:30.107Z,41.93
2022-08-29T04:25:37.851Z,42.05
2022-08-29T04:27:42.131Z,43.32
2022-08-29T04:29:48.447Z,44.26
2022-08-29T04:31:51.110Z,45.17
2022-08-29T04:33:53.798Z,44.96
2022-08-29T04:35:56.495Z,42.86
2022-08-29T04:37:59.413Z,41.66
2022-08-29T04:40:02.730Z,42.96
2022-08-29T04:42:06.965Z,42.79
2022-08-29T04:44:12.243Z,42.11
2022-08-29T04:46:23.927Z,41.29
2022-08-29T04:48:27.970Z,40.22
2022-08-29T04:50:30.839Z,41.31
2022-08-29T04:52:33.533Z,39.94
2022-08-29T04:54:36.379Z,40.57
2022-08-29T04:56:40.852Z,40.70
2022-08-29T04:58:52.951Z,39.70
2022-08-29T05:00:56.644Z,39.54
2022-08-29T05:03:00.494Z,40.74
2022-08-29T05:05:04.219Z,39.89
2022-08-29T05:07:07.583Z,40.05
2022-08-29T05:09:10.622Z,40.00
2022-08-29T05:11:22.698Z,40.25
2022-08-29T05:13:26.595Z,40.16
2022-08-29T05:15:29.663Z,40.06
2022-08-29T05:17:32.525Z,39.31
2022-08-29T05:19:35.427Z,39.25
2022-08-29T05:21:40.035Z,39.96
2022-08-29T05:23:42.799Z,39.23
2022-08-29T05:25:45.760Z,39.52
2022-08-29T05:27:48.537Z,39.46
2022-08-29T05:29:52.501Z,39.36
2022-08-29T05:31:55.221Z,39.29
2022-08-29T05:33:58.249Z,38.66
2022-08-29T05:36:00.903Z,41.54
2022-08-29T05:38:08.543Z,40.85
2022-08-29T05:40:15.913Z,39.72
2022-08-29T05:42:22.348Z,40.12
2022-08-29T05:44:25.824Z,39.66
2022-08-29T05:46:28.570Z,41.61
2022-08-29T05:48:32.528Z,41.41
2022-08-29T05:50:43.162Z,42.58
2022-08-29T05:52:45.841Z,44.06
2022-08-29T05:54:48.929Z,43.83
2022-08-29T05:56:52.031Z,44.84
2022-08-29T05:58:56.058Z,44.33
2022-08-29T06:00:58.838Z,43.37
2022-08-29T06:03:01.932Z,44.09
2022-08-29T06:05:05.843Z,44.25
2022-08-29T06:07:10.126Z,45.06
2022-08-29T06:09:14.267Z,45.00
2022-08-29T06:11:21.131Z,45.64
2022-08-29T06:13:23.706Z,45.44
2022-08-29T06:15:29.077Z,45.64
2022-08-29T06:17:32.548Z,45.73
2022-08-29T06:19:36.317Z,45.44
2022-08-29T06:21:39.514Z,45.10
2022-08-29T06:23:43.349Z,44.63
2022-08-29T06:25:45.994Z,43.92
2022-08-29T06:27:48.914Z,43.67
2022-08-29T06:29:51.567Z,43.48
2022-08-29T06:31:56.851Z,42.65
2022-08-29T06:34:01.442Z,42.26
2022-08-29T06:36:05.802Z,43.14
2022-08-29T06:38:13.320Z,43.18
2022-08-29T06:40:16.948Z,41.60
2022-08-29T06:42:24.026Z,42.70
2022-08-29T06:44:31.143Z,42.35
2022-08-29T06:46:37.825Z,42.38
2022-08-29T06:48:41.238Z,43.10
2022-08-29T06:50:45.753Z,43.85
2022-08-29T06:52:48.754Z,45.37
2022-08-29T06:54:51.682Z,42.86
2022-08-29T06:56:57.285Z,41.93
2022-08-29T06:59:00.303Z,40.53
2022-08-29T07:01:11.434Z,40.27
2022-08-29T07:03:15.620Z,40.70
2022-08-29T07:05:19.409Z,39.62
2022-08-29T07:07:22.047Z,39.69
2022-08-29T07:09:26.259Z,40.96
2022-08-29T07:11:30.720Z,40.63
2022-08-29T07:13:34.808Z,41.54
2022-08-29T07:18:03.227Z,45.00
2022-08-29T07:20:06.801Z,44.46
2022-08-29T07:22:09.580Z,44.09
2022-08-29T07:24:12.281Z,44.71
2022-08-29T07:26:28.865Z,43.48
2022-08-29T07:28:35.015Z,43.82
2022-08-29T07:30:40.452Z,43.65
2022-08-29T07:32:46.308Z,43.64
2022-08-29T07:34:51.778Z,44.25
2022-08-29T07:36:56.727Z,43.99
2022-08-29T07:38:59.306Z,44.64
2022-08-29T07:41:04.905Z,46.01
2022-08-29T07:43:07.604Z,45.10
2022-08-29T07:45:11.775Z,46.07
2022-08-29T07:47:14.380Z,45.60
2022-08-29T07:49:17.075Z,45.76
2022-08-29T07:51:24.941Z,47.40
2022-08-29T07:53:27.950Z,46.59
2022-08-29T07:55:30.701Z,46.09
2022-08-29T07:57:33.934Z,44.04
2022-08-29T07:59:42.428Z,45.10
2022-08-29T08:01:45.451Z,45.19
2022-08-29T08:03:48.722Z,44.32
2022-08-29T08:05:53.411Z,45.31
2022-08-29T08:07:56.361Z,42.47
2022-08-29T08:09:59.319Z,41.61
2022-08-29T08:12:05.073Z,40.84
2022-08-29T08:14:11.226Z,40.78
2022-08-29T08:16:17.462Z,40.62
2022-08-29T08:18:20.141Z,39.69
2022-08-29T08:20:23.084Z,41.12
2022-08-29T08:22:25.719Z,43.64
2022-08-29T08:24:28.317Z,41.95
2022-08-29T08:26:31.442Z,43.39
2022-08-29T08:28:34.596Z,41.64
2022-08-29T08:30:37.322Z,41.36
2022-08-29T08:32:45.606Z,39.50
2022-08-29T08:34:49.177Z,39.94
2022-08-29T08:36:57.199Z,40.78
2022-08-29T08:39:00.509Z,38.88
2022-08-29T08:41:33.884Z,38.07
2022-08-29T08:43:58.826Z,39.42
2022-08-29T08:46:01.697Z,38.16
2022-08-29T08:48:10.367Z,38.47
2022-08-29T08:50:19.087Z,39.33
2022-08-29T08:52:38.096Z,39.28
2022-08-29T08:55:03.150Z,40.72
2022-08-29T08:57:11.958Z,38.68
2022-08-29T08:59:25.738Z,37.99
2022-08-29T09:01:43.470Z,39.04
2022-08-29T09:04:03.037Z,39.36
2022-08-29T09:06:27.743Z,39.15
2022-08-29T09:08:38.205Z,39.43
2022-08-29T09:10:59.999Z,39.49
2022-08-29T09:13:27.516Z,36.91
2022-08-29T09:15:43.728Z,31.64
2022-08-29T09:17:55.852Z,29.11
2022-08-29T09:19:58.881Z,29.13
2022-08-29T09:22:16.745Z,27.79
2022-08-29T09:24:33.270Z,26.98
2022-08-29T09:26:35.965Z,27.18
2022-08-29T09:28:40.203Z,27.79
2022-08-29T09:30:46.480Z,28.02
2022-08-29T09:33:06.140Z,29.05
2022-08-29T09:35:21.714Z,25.89
2022-08-29T09:37:28.703Z,26.80
2022-08-29T09:39:32.703Z,26.94
2022-08-29T09:41:35.261Z,27.81
2022-08-29T09:43:40.656Z,28.57
2022-08-29T09:46:13.865Z,27.66
2022-08-29T09:48:17.986Z,27.69
2022-08-29T09:50:26.101Z,28.56
2022-08-29T09:52:29.159Z,25.71
2022-08-29T09:54:32.107Z,26.97
2022-08-29T09:56:37.590Z,26.99
2022-08-29T09:58:42.214Z,26.53
2022-08-29T10:01:11.727Z,23.76
2022-08-29T10:03:23.643Z,24.84
2022-08-29T10:05:44.632Z,26.05
2022-08-29T10:07:53.076Z,23.57
2022-08-29T10:10:07.267Z,23.56
2022-08-29T10:12:17.980Z,24.60
2022-08-29T10:14:20.362Z,24.08
2022-08-29T10:16:33.520Z,23.52
2022-08-29T10:18:38.926Z,23.40
2022-08-29T10:21:00.377Z,24.20
2022-08-29T10:23:18.126Z,25.92
2022-08-29T10:25:39.703Z,25.12
2022-08-29T10:28:07.334Z,26.18
2022-08-29T10:30:18.635Z,26.76
2022-08-29T10:33:25.997Z,27.23
2022-08-29T10:35:44.175Z,25.58
2022-08-29T10:37:52.602Z,26.55
2022-08-29T10:40:06.887Z,25.30
2022-08-29T10:42:16.280Z,25.47
2022-08-29T10:44:39.424Z,24.65
2022-08-29T10:46:51.288Z,25.30
2022-08-29T10:49:05.417Z,26.46
2022-08-29T10:51:51.518Z,27.32
2022-08-29T10:54:19.082Z,25.90
2022-08-29T10:56:39.066Z,26.37
2022-08-29T10:59:19.924Z,27.31
2022-08-29T11:01:31.764Z,26.60
2022-08-29T11:03:50.605Z,26.09
2022-08-29T11:06:01.468Z,25.06
2022-08-29T11:08:35.882Z,24.35
2022-08-29T11:10:44.662Z,24.54
2022-08-29T11:13:02.185Z,24.54
2022-08-29T11:15:15.914Z,24.87
2022-08-29T11:17:19.573Z,23.15
2022-08-29T11:19:25.039Z,23.45
2022-08-29T11:21:49.253Z,24.65
2022-08-29T11:23:52.868Z,24.83
2022-08-29T11:26:01.732Z,24.71
2022-08-29T11:28:23.429Z,24.77
2022-08-29T11:30:48.138Z,24.21
2022-08-29T11:33:04.113Z,26.26
2022-08-29T11:35:20.881Z,24.90
2022-08-29T11:37:29.412Z,26.54
2022-08-29T11:39:49.547Z,25.69
2022-08-29T11:41:58.440Z,25.29
2022-08-29T11:44:31.854Z,25.21
2022-08-29T11:46:44.738Z,25.13
2022-08-29T11:48:59.279Z,25.07
2022-08-29T11:51:39.250Z,25.08
2022-08-29T11:53:41.991Z,25.59
2022-08-29T11:56:05.400Z,24.98
2022-08-29T11:58:28.207Z,25.95
2022-08-29T12:00:58.585Z,26.08
2022-08-29T12:03:04.377Z,24.65
2022-08-29T12:05:20.838Z,24.83
2022-08-29T12:07:43.110Z,24.98
2022-08-29T12:09:56.448Z,23.97
2022-08-29T12:11:59.276Z,24.60
2022-08-29T12:14:04.659Z,25.03
2022-08-29T12:16:09.975Z,25.70
2022-08-29T12:18:18.514Z,24.02
2022-08-29T12:20:36.354Z,23.88
2022-08-29T12:22:59.874Z,24.22
2022-08-29T12:25:28.000Z,23.68
2022-08-29T12:27:58.250Z,24.31
2022-08-29T12:30:01.047Z,23.83
2022-08-29T12:32:22.377Z,24.41
2022-08-29T12:34:36.814Z,24.24
2022-08-29T12:37:08.320Z,23.72
2022-08-29T12:39:27.002Z,24.70
2022-08-29T12:42:06.860Z,25.04
2022-08-29T12:44:14.341Z,25.71
2022-08-29T12:46:23.020Z,25.73
2022-08-29T12:48:38.332Z,25.93
2022-08-29T12:50:45.573Z,25.69
2022-08-29T12:53:25.899Z,28.20
2022-08-29T12:55:44.506Z,28.93
2022-08-29T12:57:48.083Z,29.07
2022-08-29T12:59:53.509Z,28.64
2022-08-29T13:01:58.250Z,29.26
2022-08-29T13:04:15.030Z,28.78
2022-08-29T13:06:18.130Z,28.44
2022-08-29T13:08:29.626Z,29.27
2022-08-29T13:10:32.711Z,29.93
2022-08-29T13:12:36.839Z,30.50
2022-08-29T13:14:56.739Z,30.60
2022-08-29T13:16:59.434Z,29.19
2022-08-29T13:19:11.385Z,28.75
2022-08-29T13:21:25.306Z,29.05
2022-08-29T13:23:34.021Z,27.09
2022-08-29T13:26:03.478Z,25.99
2022-08-29T13:28:06.181Z,27.71
2022-08-29T13:30:09.336Z,27.40
2022-08-29T13:32:27.077Z,28.08
2022-08-29T13:34:29.796Z,28.40
2022-08-29T13:36:59.144Z,28.58
2022-08-29T13:39:25.368Z,28.88
2022-08-29T13:41:29.127Z,28.73
2022-08-29T13:43:43.381Z,30.23
2022-08-29T13:45:46.025Z,29.50
2022-08-29T13:47:56.922Z,29.51
2022-08-29T13:50:07.352Z,29.55
2022-08-29T13:52:11.453Z,29.36
2022-08-29T13:54:14.651Z,29.75
2022-08-29T13:56:31.582Z,30.24
2022-08-29T13:58:35.026Z,29.89
2022-08-29T14:00:37.891Z,29.19
2022-08-29T14:02:45.290Z,31.22
2022-08-29T14:04:48.686Z,30.42
2022-08-29T14:06:52.525Z,29.69
2022-08-29T14:08:59.493Z,30.13
2022-08-29T14:11:02.169Z,30.39
2022-08-29T14:13:05.576Z,30.17
2022-08-29T14:15:11.296Z,30.83
2022-08-29T14:17:18.472Z,29.95
2022-08-29T14:19:21.548Z,31.01
2022-08-29T14:21:24.852Z,31.41
2022-08-29T14:23:27.564Z,30.99
2022-08-29T14:25:30.573Z,31.53
2022-08-29T14:27:33.337Z,31.77
2022-08-29T14:29:36.540Z,31.82
2022-08-29T14:31:39.626Z,32.05
2022-08-29T14:33:42.273Z,32.47
2022-08-29T14:35:48.030Z,32.66
2022-08-29T14:37:50.706Z,32.72
2022-08-29T14:39:53.583Z,33.16
2022-08-29T14:41:56.379Z,33.10
2022-08-29T14:43:59.292Z,33.61
2022-08-29T14:46:02.068Z,34.24
2022-08-29T14:48:06.001Z,33.40
2022-08-29T14:50:09.791Z,33.84
2022-08-29T14:52:15.303Z,33.97
2022-08-29T14:54:18.287Z,34.01
2022-08-29T14:56:46.986Z,34.96
2022-08-29T14:58:52.321Z,34.27
2022-08-29T15:00:55.077Z,33.98
2022-08-29T15:02:58.417Z,34.13
2022-08-29T15:05:01.244Z,34.71
2022-08-29T15:07:11.079Z,34.57
2022-08-29T15:09:13.816Z,34.39
2022-08-29T15:11:16.993Z,34.25
2022-08-29T15:13:19.594Z,34.11
2022-08-29T15:15:29.519Z,34.22
2022-08-29T15:17:32.486Z,34.67
2022-08-29T15:21:58.203Z,35.05
2022-08-29T15:24:05.379Z,34.46
2022-08-29T15:26:08.172Z,36.07
2022-08-29T15:28:13.330Z,34.43
2022-08-29T15:30:21.796Z,35.40
2022-08-29T15:32:25.344Z,35.17
2022-08-29T15:34:29.715Z,35.45
2022-08-29T15:36:32.993Z,35.78
2022-08-29T15:38:35.767Z,35.02
2022-08-29T15:40:38.505Z,35.61
2022-08-29T15:42:41.457Z,35.59
2022-08-29T15:44:44.414Z,36.05
2022-08-29T15:46:50.473Z,36.25
2022-08-29T15:48:53.991Z,36.03
2022-08-29T15:50:56.678Z,35.91
2022-08-29T15:52:59.438Z,36.73
2022-08-29T15:55:02.219Z,36.30
2022-08-29T15:57:06.442Z,36.49
2022-08-29T15:59:11.650Z,37.02
2022-08-29T16:01:14.248Z,36.45
2022-08-29T16:03:16.969Z,36.73
2022-08-29T16:05:20.120Z,36.70
2022-08-29T16:07:29.087Z,37.02
2022-08-29T16:09:32.127Z,36.86
2022-08-29T16:11:35.619Z,36.95
2022-08-29T16:13:38.477Z,37.78
2022-08-29T16:15:41.459Z,37.16
2022-08-29T16:17:44.501Z,39.30
2022-08-29T16:19:47.266Z,38.09
2022-08-29T16:21:49.906Z,39.97
2022-08-29T16:23:53.175Z,38.33
2022-08-29T16:25:55.765Z,38.33
2022-08-29T16:28:00.444Z,38.05
2022-08-29T16:30:03.953Z,38.46
2022-08-29T16:32:08.032Z,38.91
2022-08-29T16:34:10.845Z,38.51
2022-08-29T16:36:14.311Z,39.05
2022-08-29T16:38:17.351Z,38.79
2022-08-29T16:40:21.608Z,40.21
2022-08-29T16:42:29.939Z,39.90
2022-08-29T16:44:34.111Z,39.64
2022-08-29T16:46:36.743Z,39.35
2022-08-29T16:48:39.801Z,40.03
2022-08-29T16:50:42.470Z,39.68
2022-08-29T16:52:45.244Z,39.91
2022-08-29T16:54:47.858Z,40.35
2022-08-29T16:56:55.489Z,40.64
2022-08-29T16:59:02.035Z,40.32
2022-08-29T17:01:04.909Z,40.98
2022-08-29T17:03:08.153Z,41.09
2022-08-29T17:05:10.838Z,40.62
2022-08-29T17:07:13.609Z,41.02
2022-08-29T17:09:19.575Z,40.80
2022-08-29T17:11:22.234Z,40.77
2022-08-29T17:13:24.974Z,40.99
2022-08-29T17:15:27.590Z,41.11
2022-08-29T17:17:30.311Z,41.25
2022-08-29T17:19:34.335Z,41.26
2022-08-29T17:21:37.812Z,41.06
2022-08-29T17:23:40.907Z,40.74
2022-08-29T17:25:43.615Z,41.17
2022-08-29T17:28:00.973Z,40.49
2022-08-29T17:30:09.759Z,40.35
2022-08-29T17:32:12.694Z,40.52
2022-08-29T17:34:16.428Z,40.45
2022-08-29T17:36:20.112Z,40.48
2022-08-29T17:38:23.878Z,40.14
2022-08-29T17:40:29.427Z,40.21
2022-08-29T17:42:32.499Z,39.94
2022-08-29T17:44:35.359Z,40.43
2022-08-29T17:46:37.971Z,40.42
2022-08-29T17:48:41.039Z,40.68
2022-08-29T17:50:43.976Z,40.56
2022-08-29T17:52:46.628Z,40.37
2022-08-29T17:54:50.271Z,40.07
2022-08-29T17:57:00.314Z,39.98
2022-08-29T17:59:05.586Z,40.31
2022-08-29T18:01:15.889Z,40.15
2022-08-29T18:03:19.805Z,40.33
2022-08-29T18:05:22.671Z,39.97
2022-08-29T18:07:25.432Z,40.15
2022-08-29T18:09:31.375Z,39.97
2022-08-29T18:11:36.712Z,39.85
2022-08-29T18:13:39.910Z,39.96
2022-08-29T18:15:43.448Z,39.77
2022-08-29T18:17:46.669Z,39.55
2022-08-29T18:19:49.383Z,39.66
2022-08-29T18:21:53.289Z,39.27
2022-08-29T18:23:57.060Z,39.10
2022-08-29T18:26:00.483Z,38.64
2022-08-29T18:28:03.708Z,38.48
2022-08-29T18:30:09.071Z,39.87
2022-08-29T18:32:11.919Z,41.87
2022-08-29T18:34:15.723Z,42.55
2022-08-29T18:36:20.107Z,42.84
2022-08-29T18:38:23.044Z,42.87
2022-08-29T18:40:26.795Z,42.72
2022-08-29T18:42:40.440Z,43.53
2022-08-29T18:44:43.851Z,43.34
2022-08-29T18:46:48.331Z,43.49
2022-08-29T18:48:51.600Z,43.32
2022-08-29T18:50:55.391Z,43.14
2022-08-29T18:52:58.199Z,43.31
2022-08-29T18:55:00.863Z,43.21
2022-08-29T18:57:07.142Z,43.35
2022-08-29T18:59:10.238Z,43.57
2022-08-29T19:01:27.061Z,43.73
2022-08-29T19:03:30.403Z,43.77
2022-08-29T19:05:35.446Z,43.99
2022-08-29T19:07:57.756Z,44.26
2022-08-29T19:10:00.400Z,44.23
2022-08-29T19:12:03.682Z,43.92
2022-08-29T19:14:09.760Z,44.03
2022-08-29T19:16:13.182Z,44.01
2022-08-29T19:18:16.784Z,43.38
2022-08-29T19:20:42.464Z,42.91
2022-08-29T19:22:46.281Z,42.40
2022-08-29T19:24:49.335Z,42.26
2022-08-29T19:26:52.003Z,42.08
2022-08-29T19:28:59.730Z,42.32
2022-08-29T19:31:03.203Z,42.29
2022-08-29T19:33:07.078Z,42.13
2022-08-29T19:35:13.045Z,41.96
2022-08-29T19:37:16.016Z,42.45
2022-08-29T19:39:18.909Z,41.81
2022-08-29T19:41:21.713Z,41.95
2022-08-29T19:43:31.742Z,42.03
2022-08-29T19:45:34.879Z,42.10
2022-08-29T19:47:38.830Z,42.06
2022-08-29T19:49:45.274Z,41.64
2022-08-29T19:51:48.220Z,41.49
2022-08-29T19:53:51.046Z,42.56
2022-08-29T19:55:55.197Z,41.49
2022-08-29T19:57:58.274Z,41.14
2022-08-29T20:00:01.794Z,41.29
2022-08-29T20:02:07.850Z,40.91
2022-08-29T20:04:12.955Z,41.48
2022-08-29T20:06:15.980Z,40.98
2022-08-29T20:08:18.671Z,41.07
2022-08-29T20:10:27.686Z,39.88
2022-08-29T20:12:32.239Z,38.96
2022-08-29T20:14:35.305Z,38.04
2022-08-29T20:16:38.530Z,37.57
2022-08-29T20:18:43.347Z,37.05
2022-08-29T20:20:48.124Z,36.49
2022-08-29T20:22:52.580Z,36.29
2022-08-29T20:24:56.955Z,35.25
2022-08-29T20:27:01.187Z,34.81
2022-08-29T20:29:08.219Z,34.57
2022-08-29T20:31:11.022Z,34.66
2022-08-29T20:33:14.435Z,33.96
2022-08-29T20:35:37.697Z,33.59
2022-08-29T20:37:40.347Z,32.82
2022-08-29T20:39:47.396Z,31.88
2022-08-29T20:41:57.056Z,32.86
2022-08-29T20:44:07.017Z,32.81
2022-08-29T20:46:12.057Z,32.18
2022-08-29T20:48:15.011Z,33.00
2022-08-29T20:50:17.899Z,33.14
2022-08-29T20:52:22.191Z,32.80
2022-08-29T20:54:25.404Z,32.37
2022-08-29T20:56:28.203Z,32.87
2022-08-29T20:58:31.638Z,32.72
2022-08-29T21:00:34.453Z,32.68
2022-08-29T21:02:55.673Z,32.48
2022-08-29T21:05:16.559Z,32.71
2022-08-29T21:07:21.040Z,32.79
2022-08-29T21:09:25.030Z,33.52
2022-08-29T21:11:27.740Z,33.82
2022-08-29T21:13:30.321Z,33.81
2022-08-29T21:15:33.538Z,33.10
2022-08-29T21:17:36.122Z,32.94
2022-08-29T21:19:39.880Z,33.03
2022-08-29T21:21:44.038Z,33.27
2022-08-29T21:23:47.449Z,33.16
2022-08-29T21:25:55.608Z,33.05
2022-08-29T21:27:58.296Z,33.03
2022-08-29T21:30:02.238Z,33.55
2022-08-29T21:32:05.895Z,33.30
2022-08-29T21:34:10.807Z,33.37
2022-08-29T21:36:25.987Z,33.69
2022-08-29T21:38:29.435Z,33.64
2022-08-29T21:40:32.221Z,33.67
2022-08-29T21:42:34.970Z,33.59
2022-08-29T21:44:37.589Z,33.93
2022-08-29T21:46:44.032Z,33.91
2022-08-29T21:48:47.194Z,34.12
2022-08-29T21:50:57.588Z,34.08
2022-08-29T21:53:00.163Z,34.05
2022-08-29T21:55:05.253Z,34.52
2022-08-29T21:57:17.553Z,34.13
2022-08-29T21:59:21.631Z,34.79
2022-08-29T22:01:30.102Z,34.95
2022-08-29T22:03:32.845Z,35.07
2022-08-29T22:05:35.632Z,34.55
2022-08-29T22:07:43.668Z,34.59
2022-08-29T22:09:46.281Z,34.79
2022-08-29T22:11:49.086Z,34.56
2022-08-29T22:13:53.694Z,34.90
2022-08-29T22:16:16.894Z,35.26
2022-08-29T22:18:20.056Z,35.12
2022-08-29T22:20:22.809Z,34.76
2022-08-29T22:22:26.238Z,35.16
2022-08-29T22:24:29.207Z,35.20
2022-08-29T22:26:34.801Z,34.76
2022-08-29T22:28:37.843Z,34.79
2022-08-29T22:30:40.655Z,35.05
2022-08-29T22:32:43.566Z,34.52
2022-08-29T22:34:55.707Z,34.69
2022-08-29T22:36:58.555Z,34.77
2022-08-29T22:39:01.354Z,34.40
2022-08-29T22:41:04.770Z,34.82
2022-08-29T22:43:08.393Z,35.51
2022-08-29T22:45:14.402Z,34.54
2022-08-29T22:47:18.585Z,35.35
2022-08-29T22:49:21.616Z,34.30
2022-08-29T22:51:27.088Z,34.27
2022-08-29T22:53:29.777Z,34.59
2022-08-29T22:55:32.536Z,34.34
2022-08-29T22:57:35.415Z,35.82
2022-08-29T22:59:39.916Z,34.92
2022-08-29T23:01:44.214Z,34.81
2022-08-29T23:03:47.027Z,35.35
2022-08-29T23:05:50.097Z,34.99
2022-08-29T23:07:52.891Z,34.88
2022-08-29T23:09:56.719Z,35.18
2022-08-29T23:11:59.463Z,34.87
2022-08-29T23:14:04.229Z,35.01
2022-08-29T23:16:07.246Z,34.53
2022-08-29T23:18:09.975Z,34.61
2022-08-29T23:20:15.042Z,34.43
2022-08-29T23:22:17.845Z,34.46
2022-08-29T23:24:21.592Z,34.59
2022-08-29T23:26:24.732Z,34.74
2022-08-29T23:28:28.016Z,34.98
2022-08-29T23:30:30.723Z,35.01
2022-08-29T23:32:33.431Z,35.39
2022-08-29T23:34:36.145Z,35.48
2022-08-29T23:36:39.067Z,35.44
2022-08-29T23:38:43.592Z,35.63
2022-08-29T23:40:46.430Z,35.83
2022-08-29T23:42:49.105Z,35.73
2022-08-29T23:44:52.127Z,36.06
2022-08-29T23:46:58.161Z,35.97
2022-08-29T23:49:00.989Z,36.38
2022-08-29T23:51:08.483Z,36.47
2022-08-29T23:53:11.490Z,36.88
2022-08-29T23:55:16.649Z,36.98
2022-08-29T23:57:19.314Z,36.61
2022-08-29T23:59:40.824Z,36.97
